createdAt,value
2018-05-12T00:01:02.197Z,31.04
2018-05-12T00:03:34.594Z,30.90
2018-05-12T00:06:05.172Z,30.91
2018-05-12T00:08:35.539Z,30.79
2018-05-12T00:11:06.067Z,30.80
2018-05-12T00:13:36.752Z,30.91
2018-05-12T00:16:09.222Z,31.00
2018-05-12T00:18:39.880Z,31.09
2018-05-12T00:21:10.469Z,31.09
2018-05-12T00:23:41.015Z,31.26
2018-05-12T00:26:11.629Z,31.49
2018-05-12T00:28:42.233Z,31.54
2018-05-12T00:31:12.817Z,31.63
2018-05-12T00:33:43.449Z,31.80
2018-05-12T00:36:14.026Z,31.96
2018-05-12T00:38:44.587Z,32.18
2018-05-12T00:41:17.030Z,32.33
2018-05-12T00:43:47.589Z,32.27
2018-05-12T00:46:18.150Z,32.57
2018-05-12T00:48:48.692Z,32.71
2018-05-12T00:51:19.256Z,32.88
2018-05-12T00:53:49.904Z,32.88
2018-05-12T00:56:22.091Z,32.74
2018-05-12T00:58:52.617Z,32.69
2018-05-12T01:01:23.217Z,32.73
2018-05-12T01:03:53.721Z,33.00
2018-05-12T01:06:24.296Z,33.57
2018-05-12T01:08:54.861Z,33.72
2018-05-12T01:11:25.513Z,33.80
2018-05-12T01:13:56.161Z,33.63
2018-05-12T01:16:26.810Z,33.52
2018-05-12T01:18:59.180Z,33.39
2018-05-12T01:21:31.506Z,33.20
2018-05-12T01:24:02.173Z,33.09
2018-05-12T01:26:32.484Z,33.04
2018-05-12T01:29:03.033Z,32.95
2018-05-12T01:31:33.549Z,32.89
2018-05-12T01:34:04.180Z,32.77
2018-05-12T01:36:34.731Z,32.88
2018-05-12T01:39:05.908Z,32.74
2018-05-12T01:41:38.225Z,32.56
2018-05-12T01:44:08.821Z,32.49
2018-05-12T01:46:39.409Z,32.38
2018-05-12T01:49:09.967Z,32.62
2018-05-12T01:51:40.550Z,32.91
2018-05-12T01:54:11.073Z,32.80
2018-05-12T01:56:41.635Z,32.75
2018-05-12T01:59:12.119Z,32.59
2018-05-12T02:01:44.520Z,32.55
2018-05-12T02:04:15.612Z,32.55
2018-05-12T02:06:46.208Z,33.10
2018-05-12T02:09:16.689Z,33.51
2018-05-12T02:11:47.321Z,33.35
2018-05-12T02:14:17.841Z,33.24
2018-05-12T02:16:48.453Z,33.09
2018-05-12T02:19:19.167Z,33.01
2018-05-12T02:21:49.836Z,33.05
2018-05-12T02:24:20.401Z,33.10
2018-05-12T02:26:50.989Z,32.98
2018-05-12T02:29:21.567Z,32.94
2018-05-12T02:31:52.089Z,33.04
2018-05-12T02:34:22.809Z,33.04
2018-05-12T02:36:53.333Z,33.05
2018-05-12T02:39:25.608Z,33.08
2018-05-12T02:41:57.949Z,33.09
2018-05-12T02:44:29.421Z,33.01
2018-05-12T02:47:00.056Z,32.94
2018-05-12T02:49:31.653Z,33.02
2018-05-12T02:52:02.239Z,33.03
2018-05-12T02:54:32.812Z,33.09
2018-05-12T02:57:03.609Z,33.17
2018-05-12T02:59:34.153Z,33.15
2018-05-12T03:02:04.721Z,33.23
2018-05-12T03:04:35.393Z,33.28
2018-05-12T03:07:05.950Z,33.38
2018-05-12T03:09:36.472Z,33.46
2018-05-12T03:12:07.189Z,33.47
2018-05-12T03:14:37.585Z,33.57
2018-05-12T03:17:09.921Z,33.57
2018-05-12T03:19:40.457Z,33.74
2018-05-12T03:22:11.027Z,33.80
2018-05-12T03:24:42.512Z,33.97
2018-05-12T03:27:13.029Z,33.97
2018-05-12T03:29:43.594Z,33.86
2018-05-12T03:32:14.094Z,33.89
2018-05-12T03:34:44.653Z,34.06
2018-05-12T03:37:16.995Z,34.19
2018-05-12T03:39:49.536Z,34.18
2018-05-12T03:42:21.868Z,34.25
2018-05-12T03:44:52.484Z,34.44
2018-05-12T03:47:23.032Z,34.42
2018-05-12T03:49:53.557Z,34.47
2018-05-12T03:52:24.249Z,34.57
2018-05-12T03:54:54.796Z,34.72
2018-05-12T03:57:25.472Z,34.99
2018-05-12T03:59:56.135Z,35.19
2018-05-12T04:02:26.954Z,35.28
2018-05-12T04:09:15.468Z,35.84
2018-05-12T04:12:55.871Z,37.20
2018-05-12T04:15:26.415Z,37.30
2018-05-12T04:17:58.885Z,36.98
2018-05-12T04:20:29.690Z,36.68
2018-05-12T04:23:00.215Z,36.43
2018-05-12T04:25:31.215Z,36.20
2018-05-12T04:28:01.827Z,35.93
2018-05-12T04:30:34.197Z,35.62
2018-05-12T04:33:05.636Z,35.22
2018-05-12T04:35:36.293Z,35.03
2018-05-12T04:38:08.648Z,34.83
2018-05-12T04:40:39.337Z,34.65
2018-05-12T04:43:09.965Z,34.12
2018-05-12T04:45:40.497Z,33.99
2018-05-12T04:48:11.094Z,34.10
2018-05-12T04:50:41.661Z,34.08
2018-05-12T04:53:12.444Z,34.15
2018-05-12T04:55:42.954Z,34.33
2018-05-12T04:58:13.493Z,34.39
2018-05-12T05:00:44.031Z,34.74
2018-05-12T05:03:14.569Z,34.95
2018-05-12T05:05:45.078Z,35.19
2018-05-12T05:08:15.677Z,35.39
2018-05-12T05:10:46.396Z,35.45
2018-05-12T05:13:16.946Z,35.28
2018-05-12T05:15:47.524Z,35.08
2018-05-12T05:18:18.103Z,34.67
2018-05-12T05:20:48.600Z,34.26
2018-05-12T05:23:19.176Z,33.85
2018-05-12T05:25:49.767Z,33.03
2018-05-12T05:28:20.426Z,32.69
2018-05-12T05:30:50.932Z,32.75
2018-05-12T05:33:21.302Z,32.76
2018-05-12T05:35:51.889Z,32.80
2018-05-12T05:38:22.458Z,32.47
2018-05-12T05:40:53.005Z,32.29
2018-05-12T05:43:23.624Z,31.82
2018-05-12T05:45:54.125Z,31.59
2018-05-12T05:48:31.191Z,31.03
2018-05-12T05:51:01.749Z,30.94
2018-05-12T05:53:32.246Z,30.99
2018-05-12T05:56:02.796Z,30.81
2018-05-12T05:58:33.470Z,30.63
2018-05-12T06:01:04.267Z,30.48
2018-05-12T06:03:34.922Z,30.42
2018-05-12T06:06:05.476Z,30.32
2018-05-12T06:08:36.009Z,30.22
2018-05-12T06:11:06.578Z,30.52
2018-05-12T06:13:37.121Z,30.77
2018-05-12T06:16:07.753Z,31.00
2018-05-12T06:18:38.292Z,31.24
2018-05-12T06:21:08.820Z,31.33
2018-05-12T06:23:39.383Z,31.46
2018-05-12T06:26:09.942Z,30.71
2018-05-12T06:28:40.541Z,30.28
2018-05-12T06:31:11.088Z,30.13
2018-05-12T06:33:41.648Z,29.93
2018-05-12T06:36:12.188Z,29.84
2018-05-12T06:38:42.733Z,29.58
2018-05-12T06:41:13.393Z,29.39
2018-05-12T06:43:43.965Z,29.32
2018-05-12T06:46:14.528Z,29.34
2018-05-12T06:48:45.295Z,29.31
2018-05-12T06:51:15.928Z,29.06
2018-05-12T06:53:46.533Z,29.19
2018-05-12T06:56:17.149Z,28.70
2018-05-12T06:58:47.761Z,28.12
2018-05-12T07:01:18.701Z,27.88
2018-05-12T07:03:49.413Z,26.99
2018-05-12T07:06:20.030Z,26.50
2018-05-12T07:08:50.582Z,26.48
2018-05-12T07:11:21.247Z,26.60
2018-05-12T07:13:51.790Z,26.96
2018-05-12T07:16:22.524Z,26.79
2018-05-12T07:18:53.116Z,27.02
2018-05-12T07:21:23.653Z,27.07
2018-05-12T07:23:54.216Z,26.87
2018-05-12T07:26:24.996Z,26.50
2018-05-12T07:28:55.620Z,26.32
2018-05-12T07:31:26.265Z,26.01
2018-05-12T07:33:56.862Z,25.94
2018-05-12T07:36:27.436Z,25.95
2018-05-12T07:38:58.075Z,25.95
2018-05-12T07:41:28.779Z,25.05
2018-05-12T07:43:59.396Z,25.12
2018-05-12T07:46:30.019Z,24.81
2018-05-12T07:49:00.547Z,24.30
2018-05-12T07:51:31.179Z,24.30
2018-05-12T07:54:01.740Z,23.89
2018-05-12T07:56:32.467Z,23.17
2018-05-12T07:59:03.040Z,23.26
2018-05-12T08:01:33.729Z,23.53
2018-05-12T08:04:04.328Z,23.44
2018-05-12T08:06:35.092Z,23.47
2018-05-12T08:09:05.800Z,23.35
2018-05-12T08:11:36.477Z,23.33
2018-05-12T08:14:07.121Z,23.48
2018-05-12T08:16:37.823Z,23.10
2018-05-12T08:19:08.407Z,23.21
2018-05-12T08:21:39.076Z,23.52
2018-05-12T08:24:09.700Z,23.09
2018-05-12T08:26:40.305Z,23.09
2018-05-12T08:29:10.907Z,23.06
2018-05-12T08:31:41.546Z,22.79
2018-05-12T08:34:12.198Z,22.73
2018-05-12T08:36:42.806Z,22.79
2018-05-12T08:39:13.369Z,22.74
2018-05-12T08:41:44.009Z,22.36
2018-05-12T08:44:14.817Z,22.45
2018-05-12T08:46:45.400Z,22.24
2018-05-12T08:49:15.956Z,21.74
2018-05-12T08:51:46.517Z,21.89
2018-05-12T08:54:17.252Z,22.02
2018-05-12T08:56:47.821Z,22.34
2018-05-12T08:59:18.518Z,22.13
2018-05-12T09:01:49.100Z,21.77
2018-05-12T09:04:19.810Z,21.17
2018-05-12T09:06:50.541Z,21.38
2018-05-12T09:09:21.160Z,20.73
2018-05-12T09:11:51.769Z,20.40
2018-05-12T09:14:22.327Z,20.28
2018-05-12T09:16:53.042Z,20.17
2018-05-12T09:19:23.841Z,20.16
2018-05-12T09:21:54.646Z,19.93
2018-05-12T09:24:25.328Z,20.10
2018-05-12T09:26:55.928Z,19.54
2018-05-12T09:29:26.712Z,19.72
2018-05-12T09:31:57.384Z,19.74
2018-05-12T09:34:28.020Z,19.65
2018-05-12T09:36:58.642Z,19.77
2018-05-12T09:39:29.361Z,19.18
2018-05-12T09:42:00.144Z,19.52
2018-05-12T09:44:30.876Z,19.62
2018-05-12T09:47:01.477Z,19.44
2018-05-12T09:49:32.181Z,19.12
2018-05-12T09:52:02.765Z,19.32
2018-05-12T09:54:33.391Z,19.13
2018-05-12T09:57:03.911Z,19.40
2018-05-12T09:59:36.555Z,19.36
2018-05-12T10:02:07.340Z,18.54
2018-05-12T10:04:37.971Z,18.13
2018-05-12T10:07:08.572Z,18.64
2018-05-12T10:09:39.380Z,19.19
2018-05-12T10:12:10.040Z,19.23
2018-05-12T10:14:40.668Z,19.50
2018-05-12T10:17:11.214Z,19.68
2018-05-12T10:19:41.923Z,18.96
2018-05-12T10:22:12.758Z,19.39
2018-05-12T10:24:43.741Z,19.32
2018-05-12T10:27:14.341Z,19.05
2018-05-12T10:29:44.884Z,18.99
2018-05-12T10:32:15.425Z,18.85
2018-05-12T10:34:46.017Z,18.95
2018-05-12T10:37:16.618Z,18.85
2018-05-12T10:39:47.220Z,18.51
2018-05-12T10:42:17.902Z,18.63
2018-05-12T10:44:48.661Z,18.44
2018-05-12T10:47:19.356Z,18.54
2018-05-12T10:49:49.933Z,18.38
2018-05-12T10:52:20.488Z,18.69
2018-05-12T10:54:52.969Z,19.01
2018-05-12T10:57:23.505Z,18.73
2018-05-12T10:59:54.086Z,18.46
2018-05-12T11:02:24.637Z,18.44
2018-05-12T11:04:55.249Z,18.23
2018-05-12T11:07:25.836Z,17.89
2018-05-12T11:09:56.995Z,17.84
2018-05-12T11:12:27.568Z,17.75
2018-05-12T11:14:58.112Z,17.73
2018-05-12T11:17:28.986Z,18.00
2018-05-12T11:19:59.509Z,17.83
2018-05-12T11:22:30.043Z,17.66
2018-05-12T11:25:00.605Z,17.48
2018-05-12T11:27:31.194Z,16.67
2018-05-12T11:30:03.353Z,16.54
2018-05-12T11:32:37.665Z,16.92
2018-05-12T11:35:10.010Z,16.67
2018-05-12T11:37:40.567Z,16.33
2018-05-12T11:40:11.211Z,16.48
2018-05-12T11:42:42.831Z,16.59
2018-05-12T11:45:14.942Z,16.23
2018-05-12T11:47:47.309Z,16.47
2018-05-12T11:50:17.871Z,16.35
2018-05-12T11:52:48.540Z,16.15
2018-05-12T11:55:19.143Z,16.20
2018-05-12T11:57:49.733Z,15.63
2018-05-12T12:00:20.342Z,16.06
2018-05-12T12:02:50.903Z,16.02
2018-05-12T12:05:21.481Z,16.20
2018-05-12T12:07:52.041Z,16.37
2018-05-12T12:10:22.606Z,16.53
2018-05-12T12:12:53.234Z,16.36
2018-05-12T12:15:23.804Z,16.50
2018-05-12T12:17:54.447Z,16.56
2018-05-12T12:20:25.133Z,16.68
2018-05-12T12:22:55.735Z,16.81
2018-05-12T12:25:26.384Z,16.65
2018-05-12T12:27:56.964Z,16.57
2018-05-12T12:30:27.596Z,16.39
2018-05-12T12:32:58.232Z,16.46
2018-05-12T12:35:31.705Z,16.39
2018-05-12T12:38:02.335Z,16.30
2018-05-12T12:40:32.988Z,15.76
2018-05-12T12:43:03.745Z,15.79
2018-05-12T12:45:34.565Z,15.83
2018-05-12T12:48:05.271Z,15.65
2018-05-12T12:50:36.351Z,15.34
2018-05-12T12:53:06.964Z,14.93
2018-05-12T12:55:38.380Z,15.10
2018-05-12T12:58:08.946Z,15.04
2018-05-12T13:00:39.842Z,14.99
2018-05-12T13:03:10.447Z,14.98
2018-05-12T13:05:41.353Z,14.73
2018-05-12T13:08:11.919Z,14.57
2018-05-12T13:10:42.532Z,14.14
2018-05-12T13:13:13.177Z,13.60
2018-05-12T13:15:43.889Z,13.33
2018-05-12T13:18:14.974Z,13.45
2018-05-12T13:20:45.836Z,13.59
2018-05-12T13:23:17.476Z,13.59
2018-05-12T13:25:48.084Z,13.28
2018-05-12T13:28:18.660Z,13.07
2018-05-12T13:30:51.108Z,13.15
2018-05-12T13:33:23.528Z,13.04
2018-05-12T13:35:54.036Z,12.82
2018-05-12T13:38:24.637Z,12.78
2018-05-12T13:40:55.317Z,12.63
2018-05-12T13:43:26.012Z,12.59
2018-05-12T13:45:56.611Z,12.75
2018-05-12T13:48:27.176Z,12.62
2018-05-12T13:50:57.830Z,12.41
2018-05-12T13:53:28.565Z,12.10
2018-05-12T13:55:59.236Z,12.25
2018-05-12T13:58:31.901Z,12.23
2018-05-12T14:01:04.322Z,12.07
2018-05-12T14:03:35.021Z,12.31
2018-05-12T14:06:06.403Z,12.17
2018-05-12T14:08:40.981Z,12.35
2018-05-12T14:11:13.402Z,12.24
2018-05-12T14:13:44.362Z,12.32
2018-05-12T14:16:14.981Z,12.29
2018-05-12T14:18:47.472Z,12.97
2018-05-12T14:21:18.128Z,13.22
2018-05-12T14:23:49.573Z,13.36
2018-05-12T14:26:20.303Z,13.34
2018-05-12T14:28:52.760Z,13.27
2018-05-12T14:31:23.306Z,12.75
2018-05-12T14:33:53.924Z,12.21
2018-05-12T14:36:24.538Z,11.99
2018-05-12T14:38:55.159Z,12.06
2018-05-12T14:41:25.749Z,11.92
2018-05-12T14:43:56.352Z,11.78
2018-05-12T14:46:26.904Z,12.25
2018-05-12T14:48:57.523Z,12.38
2018-05-12T14:51:28.181Z,12.47
2018-05-12T14:53:59.827Z,12.68
2018-05-12T14:56:30.436Z,12.70
2018-05-12T14:59:01.916Z,12.83
2018-05-12T15:01:32.461Z,12.83
2018-05-12T15:04:03.152Z,12.82
2018-05-12T15:06:36.040Z,12.82
2018-05-12T15:09:08.603Z,12.72
2018-05-12T15:11:40.226Z,12.56
2018-05-12T15:14:12.722Z,12.60
2018-05-12T15:16:45.172Z,12.45
2018-05-12T15:19:15.797Z,12.33
2018-05-12T15:21:46.525Z,12.49
2018-05-12T15:24:17.134Z,12.28
2018-05-12T15:26:47.885Z,12.56
2018-05-12T15:29:20.344Z,12.66
2018-05-12T15:31:51.820Z,12.75
2018-05-12T15:34:24.155Z,12.71
2018-05-12T15:36:54.812Z,12.62
2018-05-12T15:39:25.501Z,12.69
2018-05-12T15:41:56.217Z,12.63
2018-05-12T15:44:27.077Z,12.82
2018-05-12T15:46:59.488Z,12.91
2018-05-12T15:49:30.060Z,13.04
2018-05-12T15:52:02.461Z,13.20
2018-05-12T15:54:34.940Z,13.21
2018-05-12T15:57:07.553Z,13.22
2018-05-12T15:59:39.663Z,13.35
2018-05-12T16:02:10.205Z,13.33
2018-05-12T16:04:41.342Z,13.38
2018-05-12T16:07:11.900Z,13.63
2018-05-12T16:09:42.574Z,13.77
2018-05-12T16:12:14.998Z,13.72
2018-05-12T16:14:47.776Z,13.54
2018-05-12T16:17:20.265Z,13.71
2018-05-12T16:19:50.943Z,13.85
2018-05-12T16:22:23.383Z,13.90
2018-05-12T16:24:53.998Z,14.03
2018-05-12T16:27:24.628Z,14.23
2018-05-12T16:29:55.332Z,14.48
2018-05-12T16:32:27.763Z,14.54
2018-05-12T16:34:58.397Z,14.95
2018-05-12T16:37:29.022Z,14.94
2018-05-12T16:40:03.672Z,15.19
2018-05-12T16:42:36.452Z,15.60
2018-05-12T16:45:07.068Z,15.84
2018-05-12T16:47:38.317Z,16.08
2018-05-12T16:50:09.018Z,16.41
2018-05-12T16:52:41.598Z,16.49
2018-05-12T16:55:12.271Z,16.47
2018-05-12T16:57:42.980Z,16.79
2018-05-12T17:00:15.688Z,16.93
2018-05-12T17:02:46.326Z,17.08
2018-05-12T17:05:17.050Z,17.43
2018-05-12T17:07:48.064Z,17.58
2018-05-12T17:10:19.588Z,17.87
2018-05-12T17:12:50.186Z,17.94
2018-05-12T17:15:21.050Z,18.12
2018-05-12T17:17:51.644Z,17.96
2018-05-12T17:20:22.318Z,18.18
2018-05-12T17:22:52.871Z,18.31
2018-05-12T17:25:23.486Z,18.15
2018-05-12T17:27:54.136Z,18.28
2018-05-12T17:30:24.824Z,18.42
2018-05-12T17:32:55.480Z,18.53
2018-05-12T17:35:27.917Z,18.61
2018-05-12T17:37:58.535Z,18.79
2018-05-12T17:40:29.280Z,18.98
2018-05-12T17:42:59.843Z,19.07
2018-05-12T17:45:32.273Z,19.36
2018-05-12T17:48:02.924Z,19.64
2018-05-12T17:50:33.556Z,19.86
2018-05-12T17:53:05.972Z,20.06
2018-05-12T17:55:38.688Z,20.15
2018-05-12T17:58:09.437Z,20.19
2018-05-12T18:00:40.082Z,20.38
2018-05-12T18:03:12.540Z,20.47
2018-05-12T18:05:42.873Z,20.68
2018-05-12T18:08:15.060Z,20.89
2018-05-12T18:10:45.492Z,21.09
2018-05-12T18:13:16.134Z,21.23
2018-05-12T18:15:46.884Z,21.41
2018-05-12T18:18:17.180Z,21.54
2018-05-12T18:20:48.338Z,21.66
2018-05-12T18:23:18.704Z,21.75
2018-05-12T18:25:58.720Z,21.81
2018-05-12T18:28:30.224Z,21.88
2018-05-12T18:31:01.636Z,21.98
2018-05-12T18:33:31.921Z,22.12
2018-05-12T18:36:02.516Z,22.25
2018-05-12T18:38:32.821Z,22.33
2018-05-12T18:41:03.322Z,22.47
2018-05-12T18:43:39.699Z,22.48
2018-05-12T18:46:09.993Z,22.64
2018-05-12T18:48:40.500Z,22.69
2018-05-12T18:51:10.756Z,22.83
2018-05-12T18:53:41.212Z,22.94
2018-05-12T18:56:11.478Z,23.15
2018-05-12T18:58:41.788Z,23.33
2018-05-12T19:01:12.012Z,23.65
2018-05-12T19:03:42.482Z,23.97
2018-05-12T19:06:13.088Z,24.25
2018-05-12T19:08:43.801Z,24.56
2018-05-12T19:11:14.529Z,24.71
2018-05-12T19:13:44.832Z,24.83
2018-05-12T19:16:15.149Z,25.04
2018-05-12T19:18:45.578Z,25.14
2018-05-12T19:21:15.825Z,25.29
2018-05-12T19:23:46.584Z,25.34
2018-05-12T19:26:17.229Z,25.44
2018-05-12T19:28:48.147Z,25.57
2018-05-12T19:31:18.448Z,25.71
2018-05-12T19:33:49.929Z,25.68
2018-05-12T19:36:20.208Z,25.74
2018-05-12T19:38:52.024Z,25.72
2018-05-12T19:41:22.366Z,25.70
2018-05-12T19:43:53.290Z,25.67
2018-05-12T19:46:23.547Z,25.55
2018-05-12T19:48:54.181Z,25.57
2018-05-12T19:51:24.460Z,25.51
2018-05-12T19:53:55.008Z,25.60
2018-05-12T19:56:25.622Z,25.39
2018-05-12T19:58:55.931Z,25.29
2018-05-12T20:01:27.957Z,25.11
2018-05-12T20:03:58.856Z,25.01
2018-05-12T20:06:29.158Z,24.92
2018-05-12T20:09:01.288Z,24.92
2018-05-12T20:11:31.857Z,24.88
2018-05-12T20:14:02.220Z,24.91
2018-05-12T20:16:32.999Z,24.76
2018-05-12T20:19:03.313Z,24.77
2018-05-12T20:21:33.648Z,24.79
2018-05-12T20:24:03.953Z,24.77
2018-05-12T20:26:34.268Z,24.74
2018-05-12T20:29:04.612Z,24.76
2018-05-12T20:31:34.926Z,24.67
2018-05-12T20:34:05.220Z,24.77
2018-05-12T20:36:35.462Z,24.87
2018-05-12T20:39:07.640Z,24.86
2018-05-12T20:41:39.029Z,24.85
2018-05-12T20:44:09.300Z,24.88
2018-05-12T20:46:40.035Z,25.05
2018-05-12T20:49:10.308Z,25.12
2018-05-12T20:51:41.140Z,25.13
2018-05-12T20:54:11.502Z,25.13
2018-05-12T20:56:41.786Z,25.16
2018-05-12T20:59:13.880Z,25.22
2018-05-12T21:01:44.144Z,25.21
2018-05-12T21:04:14.615Z,25.20
2018-05-12T21:06:46.727Z,25.19
2018-05-12T21:09:16.992Z,25.17
2018-05-12T21:11:47.637Z,25.18
2018-05-12T21:14:18.876Z,25.17
2018-05-12T21:16:49.387Z,25.17
2018-05-12T21:19:19.802Z,25.07
2018-05-12T21:21:50.827Z,25.13
2018-05-12T21:24:21.724Z,25.19
2018-05-12T21:26:55.461Z,25.20
2018-05-12T21:29:26.124Z,25.18
2018-05-12T21:31:57.897Z,25.14
2018-05-12T21:34:28.157Z,25.14
2018-05-12T21:37:01.010Z,25.14
2018-05-12T21:39:31.309Z,25.22
2018-05-12T21:42:01.993Z,25.30
2018-05-12T21:44:32.219Z,25.40
2018-05-12T21:47:04.664Z,25.51
2018-05-12T21:49:35.188Z,25.58
2018-05-12T21:52:05.420Z,25.64
2018-05-12T21:54:35.873Z,25.72
2018-05-12T21:57:06.191Z,25.85
2018-05-12T21:59:36.489Z,26.00
2018-05-12T22:02:06.694Z,26.07
2018-05-12T22:04:36.933Z,26.16
2018-05-12T22:07:07.508Z,26.24
2018-05-12T22:09:39.597Z,26.28
2018-05-12T22:12:09.864Z,26.43
2018-05-12T22:14:40.197Z,26.47
2018-05-12T22:17:13.292Z,26.58
2018-05-12T22:19:43.556Z,26.64
2018-05-12T22:22:15.684Z,26.67
2018-05-12T22:24:45.980Z,26.76
2018-05-12T22:27:16.304Z,26.71
2018-05-12T22:29:46.680Z,26.64
2018-05-12T22:32:18.819Z,26.50
2018-05-12T22:34:49.428Z,26.55
2018-05-12T22:37:21.515Z,26.54
2018-05-12T22:39:53.048Z,26.56
2018-05-12T22:42:25.121Z,26.54
2018-05-12T22:44:58.380Z,26.56
2018-05-12T22:47:28.707Z,26.60
2018-05-12T22:49:59.861Z,26.64
2018-05-12T22:52:32.015Z,26.66
2018-05-12T22:55:02.351Z,26.77
2018-05-12T22:57:32.633Z,26.76
2018-05-12T23:00:04.306Z,26.73
2018-05-12T23:02:34.253Z,26.82
2018-05-12T23:05:04.713Z,26.82
2018-05-12T23:07:35.453Z,26.90
2018-05-12T23:10:06.128Z,26.90
2018-05-12T23:12:36.721Z,26.82
2018-05-12T23:15:09.146Z,26.78
2018-05-12T23:17:39.711Z,26.68
2018-05-12T23:20:10.920Z,26.59
2018-05-12T23:22:48.439Z,26.53
2018-05-12T23:25:20.938Z,26.52
2018-05-12T23:27:52.014Z,26.50
2018-05-12T23:30:24.365Z,26.51
2018-05-12T23:32:55.845Z,26.47
2018-05-12T23:35:26.875Z,26.47
2018-05-12T23:37:57.531Z,26.56
2018-05-12T23:40:28.985Z,26.42
2018-05-12T23:43:00.526Z,26.30
2018-05-12T23:45:31.287Z,26.29
2018-05-12T23:48:03.517Z,26.29
2018-05-12T23:50:34.177Z,26.29
2018-05-12T23:53:05.874Z,26.34
2018-05-12T23:55:36.500Z,26.43
2018-05-12T23:58:07.471Z,26.61
